createdAt,value
2019-05-03T00:00:09.354Z,0.00
2019-05-03T00:01:09.371Z,0.00
2019-05-03T00:02:09.352Z,0.00
2019-05-03T00:03:09.339Z,0.00
2019-05-03T00:04:09.350Z,0.00
2019-05-03T00:05:09.319Z,0.00
2019-05-03T00:06:09.320Z,0.00
2019-05-03T00:07:09.310Z,0.00
2019-05-03T00:08:09.304Z,0.00
2019-05-03T00:09:09.298Z,0.00
2019-05-03T00:10:09.293Z,0.00
2019-05-03T00:11:09.278Z,0.00
2019-05-03T00:12:09.271Z,0.00
2019-05-03T00:13:09.267Z,0.00
2019-05-03T00:14:09.258Z,0.00
2019-05-03T00:15:09.255Z,0.00
2019-05-03T00:16:09.250Z,0.00
2019-05-03T00:17:09.237Z,0.00
2019-05-03T00:18:09.229Z,0.00
2019-05-03T00:19:09.242Z,0.00
2019-05-03T00:20:09.233Z,0.00
2019-05-03T00:21:09.220Z,0.00
2019-05-03T00:22:09.209Z,0.00
2019-05-03T00:23:09.203Z,0.00
2019-05-03T00:24:09.192Z,0.00
2019-05-03T00:25:09.186Z,0.00
2019-05-03T00:26:09.174Z,0.00
2019-05-03T00:27:09.175Z,0.00
2019-05-03T00:28:09.178Z,0.00
2019-05-03T00:29:09.164Z,0.00
2019-05-03T00:30:09.154Z,0.00
2019-05-03T00:31:09.147Z,0.00
2019-05-03T00:32:09.134Z,0.00
2019-05-03T00:33:09.135Z,0.00
2019-05-03T00:34:09.127Z,0.00
2019-05-03T00:35:09.118Z,0.00
2019-05-03T00:36:09.108Z,0.00
2019-05-03T00:37:09.099Z,0.00
2019-05-03T00:38:09.094Z,0.00
2019-05-03T00:39:09.093Z,0.00
2019-05-03T00:40:09.086Z,0.00
2019-05-03T00:41:09.081Z,0.00
2019-05-03T00:42:09.077Z,0.00
2019-05-03T00:43:09.065Z,0.00
2019-05-03T00:44:09.054Z,0.00
2019-05-03T00:45:09.045Z,0.00
2019-05-03T00:46:09.041Z,0.00
2019-05-03T00:47:09.040Z,0.00
2019-05-03T00:48:09.032Z,0.00
2019-05-03T00:49:09.020Z,0.00
2019-05-03T00:50:09.013Z,0.00
2019-05-03T00:51:09.010Z,0.00
2019-05-03T00:52:09.007Z,0.00
2019-05-03T00:53:08.997Z,0.00
2019-05-03T00:54:08.994Z,0.00
2019-05-03T00:55:16.071Z,0.00
2019-05-03T00:56:08.972Z,0.00
2019-05-03T00:57:08.963Z,0.00
2019-05-03T00:58:08.959Z,0.00
2019-05-03T00:59:08.961Z,0.00
2019-05-03T01:00:08.957Z,0.00
2019-05-03T01:01:08.944Z,0.00
2019-05-03T01:02:08.939Z,0.00
2019-05-03T01:03:08.924Z,0.00
2019-05-03T01:04:08.916Z,0.00
2019-05-03T01:05:08.915Z,0.00
2019-05-03T01:06:08.921Z,0.00
2019-05-03T01:07:08.893Z,0.00
2019-05-03T01:08:08.893Z,0.00
2019-05-03T01:09:08.895Z,0.00
2019-05-03T01:10:08.887Z,0.00
2019-05-03T01:11:08.874Z,0.00
2019-05-03T01:12:08.867Z,0.00
2019-05-03T01:13:08.869Z,0.00
2019-05-03T01:14:08.870Z,0.00
2019-05-03T01:15:08.844Z,0.00
2019-05-03T01:16:08.835Z,0.00
2019-05-03T01:17:08.826Z,0.00
2019-05-03T01:18:08.831Z,0.00
2019-05-03T01:19:08.820Z,0.00
2019-05-03T01:20:08.808Z,0.00
2019-05-03T01:21:08.800Z,0.00
2019-05-03T01:22:08.801Z,0.00
2019-05-03T01:23:08.797Z,0.00
2019-05-03T01:24:08.785Z,0.00
2019-05-03T01:25:08.778Z,0.00
2019-05-03T01:26:08.768Z,0.00
2019-05-03T01:27:08.760Z,0.00
2019-05-03T01:28:08.755Z,0.00
2019-05-03T01:29:08.750Z,0.00
2019-05-03T01:30:08.738Z,0.00
2019-05-03T01:31:08.743Z,0.00
2019-05-03T01:32:08.730Z,0.00
2019-05-03T01:33:08.731Z,0.00
2019-05-03T01:34:08.717Z,0.00
2019-05-03T01:35:08.709Z,0.00
2019-05-03T01:36:08.699Z,0.00
2019-05-03T01:37:08.695Z,0.00
2019-05-03T01:38:08.688Z,0.00
2019-05-03T01:39:08.676Z,0.00
2019-05-03T01:40:08.669Z,0.00
2019-05-03T01:41:08.670Z,0.00
2019-05-03T01:42:08.659Z,0.00
2019-05-03T01:43:08.654Z,0.00
2019-05-03T01:44:08.678Z,0.00
2019-05-03T01:45:08.643Z,0.00
2019-05-03T01:46:08.637Z,0.00
2019-05-03T01:47:08.623Z,0.00
2019-05-03T01:48:08.620Z,0.00
2019-05-03T01:49:08.612Z,0.00
2019-05-03T01:50:08.602Z,0.00
2019-05-03T01:51:08.595Z,0.00
2019-05-03T01:52:08.592Z,0.00
2019-05-03T01:53:08.581Z,0.00
2019-05-03T01:54:08.571Z,0.00
2019-05-03T01:55:08.577Z,0.00
2019-05-03T01:56:08.588Z,0.00
2019-05-03T01:57:08.557Z,0.00
2019-05-03T01:58:08.551Z,0.00
2019-05-03T01:59:08.539Z,0.00
2019-05-03T02:00:08.530Z,0.00
2019-05-03T02:01:08.523Z,0.00
2019-05-03T02:02:08.516Z,0.00
2019-05-03T02:03:08.516Z,0.00
2019-05-03T02:04:08.508Z,0.00
2019-05-03T02:05:08.506Z,0.00
2019-05-03T02:06:08.496Z,0.00
2019-05-03T02:07:08.485Z,0.00
2019-05-03T02:08:08.479Z,0.00
2019-05-03T02:09:08.490Z,0.00
2019-05-03T02:10:08.464Z,0.00
2019-05-03T02:11:08.482Z,0.00
2019-05-03T02:12:08.446Z,0.00
2019-05-03T02:13:08.439Z,0.00
2019-05-03T02:14:08.433Z,0.00
2019-05-03T02:15:08.437Z,0.00
2019-05-03T02:16:08.426Z,0.00
2019-05-03T02:17:08.416Z,0.00
2019-05-03T02:18:08.414Z,0.00
2019-05-03T02:19:08.402Z,0.00
2019-05-03T02:20:08.394Z,0.00
2019-05-03T02:21:08.389Z,0.00
2019-05-03T02:22:08.377Z,0.00
2019-05-03T02:23:08.379Z,0.00
2019-05-03T02:24:08.373Z,0.00
2019-05-03T02:25:08.357Z,0.00
2019-05-03T02:26:08.357Z,0.00
2019-05-03T02:27:08.353Z,0.00
2019-05-03T02:28:08.345Z,0.00
2019-05-03T02:29:08.340Z,0.00
2019-05-03T02:30:08.329Z,0.00
2019-05-03T02:31:08.320Z,0.00
2019-05-03T02:32:08.310Z,0.00
2019-05-03T02:33:08.324Z,0.00
2019-05-03T02:34:08.299Z,0.00
2019-05-03T02:35:08.294Z,0.00
2019-05-03T02:36:08.286Z,0.00
2019-05-03T02:37:08.288Z,0.00
2019-05-03T02:38:08.271Z,0.00
2019-05-03T02:39:08.279Z,0.00
2019-05-03T02:40:08.255Z,0.00
2019-05-03T02:41:08.258Z,0.00
2019-05-03T02:42:11.628Z,0.00
2019-05-03T02:43:08.240Z,0.00
2019-05-03T02:44:08.229Z,0.00
2019-05-03T02:45:08.224Z,0.00
2019-05-03T02:46:08.217Z,0.00
2019-05-03T02:47:08.207Z,0.00
2019-05-03T02:48:08.204Z,0.00
2019-05-03T02:49:08.197Z,0.00
2019-05-03T02:50:08.210Z,0.00
2019-05-03T02:51:08.173Z,0.00
2019-05-03T02:52:08.168Z,0.00
2019-05-03T02:53:08.182Z,0.00
2019-05-03T02:54:08.159Z,0.00
2019-05-03T02:55:08.164Z,0.00
2019-05-03T02:56:18.234Z,0.00
2019-05-03T02:57:08.137Z,0.00
2019-05-03T02:58:08.127Z,0.00
2019-05-03T02:59:08.125Z,0.00
2019-05-03T03:00:08.129Z,0.00
2019-05-03T03:01:08.121Z,0.00
2019-05-03T03:02:08.107Z,0.00
2019-05-03T03:03:08.090Z,0.00
2019-05-03T03:04:08.088Z,0.00
2019-05-03T03:05:08.082Z,0.00
2019-05-03T03:06:08.075Z,0.00
2019-05-03T03:07:08.070Z,0.00
2019-05-03T03:08:08.063Z,0.00
2019-05-03T03:09:08.086Z,0.00
2019-05-03T03:10:08.050Z,0.00
2019-05-03T03:11:08.052Z,0.00
2019-05-03T03:12:08.054Z,0.00
2019-05-03T03:13:08.038Z,0.00
2019-05-03T03:14:08.019Z,0.00
2019-05-03T03:15:08.021Z,0.00
2019-05-03T03:16:08.005Z,4.00
2019-05-03T03:17:07.998Z,4.00
2019-05-03T03:18:07.990Z,0.00
2019-05-03T03:19:07.994Z,4.00
2019-05-03T03:20:07.980Z,0.00
2019-05-03T03:21:07.973Z,4.00
2019-05-03T03:22:07.965Z,4.00
2019-05-03T03:23:07.954Z,4.00
2019-05-03T03:24:07.944Z,8.00
2019-05-03T03:25:07.943Z,4.00
2019-05-03T03:26:07.942Z,8.00
2019-05-03T03:27:07.933Z,8.00
2019-05-03T03:28:07.926Z,12.00
2019-05-03T03:29:07.916Z,8.00
2019-05-03T03:30:08.168Z,8.00
2019-05-03T03:31:08.620Z,12.00
2019-05-03T03:32:09.450Z,12.00
2019-05-03T03:33:09.075Z,12.00
2019-05-03T03:34:08.623Z,12.00
2019-05-03T03:35:12.035Z,16.00
2019-05-03T03:36:37.858Z,16.00
2019-05-03T03:37:10.219Z,16.00
2019-05-03T03:38:07.849Z,20.00
2019-05-03T03:39:07.845Z,16.00
2019-05-03T03:40:07.835Z,20.00
2019-05-03T03:41:07.840Z,20.00
2019-05-03T03:42:07.820Z,24.00
2019-05-03T03:43:07.816Z,24.00
2019-05-03T03:44:07.811Z,28.00
2019-05-03T03:45:07.803Z,32.00
2019-05-03T03:46:07.795Z,36.00
2019-05-03T03:47:07.788Z,36.00
2019-05-03T03:48:07.783Z,36.00
2019-05-03T03:49:07.845Z,40.00
2019-05-03T03:50:07.803Z,44.00
2019-05-03T03:51:07.760Z,44.00
2019-05-03T03:52:07.747Z,48.00
2019-05-03T03:53:07.748Z,48.00
2019-05-03T03:54:07.734Z,56.00
2019-05-03T03:55:07.739Z,56.00
2019-05-03T03:56:07.723Z,60.00
2019-05-03T03:57:08.340Z,68.00
2019-05-03T03:58:07.709Z,68.00
2019-05-03T03:59:07.695Z,72.00
2019-05-03T04:00:07.708Z,76.00
2019-05-03T04:01:07.689Z,80.00
2019-05-03T04:02:07.682Z,84.00
2019-05-03T04:03:07.692Z,88.00
2019-05-03T04:04:07.661Z,88.00
2019-05-03T04:05:07.679Z,96.00
2019-05-03T04:06:07.645Z,100.00
2019-05-03T04:07:07.656Z,100.00
2019-05-03T04:08:07.641Z,108.00
2019-05-03T04:09:07.636Z,108.00
2019-05-03T04:10:07.633Z,116.00
2019-05-03T04:11:07.609Z,120.00
2019-05-03T04:12:07.609Z,120.00
2019-05-03T04:13:07.607Z,128.00
2019-05-03T04:14:07.595Z,128.00
2019-05-03T04:15:07.593Z,132.00
2019-05-03T04:16:07.582Z,136.00
2019-05-03T04:17:07.570Z,144.00
2019-05-03T04:18:07.564Z,152.00
2019-05-03T04:19:07.560Z,156.00
2019-05-03T04:20:07.557Z,164.00
2019-05-03T04:21:07.559Z,164.00
2019-05-03T04:22:07.545Z,168.00
2019-05-03T04:23:07.526Z,176.00
2019-05-03T04:24:07.542Z,180.00
2019-05-03T04:25:07.513Z,184.00
2019-05-03T04:26:07.502Z,196.00
2019-05-03T04:27:18.026Z,204.00
2019-05-03T04:28:07.512Z,204.00
2019-05-03T04:29:07.503Z,204.00
2019-05-03T04:30:07.483Z,204.00
2019-05-03T04:31:07.473Z,208.00
2019-05-03T04:32:07.465Z,216.00
2019-05-03T04:33:07.466Z,224.00
2019-05-03T04:34:07.456Z,240.00
2019-05-03T04:35:07.447Z,244.00
2019-05-03T04:36:07.437Z,256.00
2019-05-03T04:37:07.434Z,260.00
2019-05-03T04:38:07.424Z,264.00
2019-05-03T04:39:07.421Z,264.00
2019-05-03T04:40:07.415Z,264.00
2019-05-03T04:41:07.424Z,268.00
2019-05-03T04:42:07.403Z,272.00
2019-05-03T04:43:07.393Z,276.00
2019-05-03T04:44:07.387Z,284.00
2019-05-03T04:45:07.390Z,288.00
2019-05-03T04:46:07.389Z,284.00
2019-05-03T04:47:07.370Z,288.00
2019-05-03T04:48:07.371Z,288.00
2019-05-03T04:49:07.359Z,296.00
2019-05-03T04:50:07.346Z,292.00
2019-05-03T04:51:07.351Z,296.00
2019-05-03T04:52:07.339Z,304.00
2019-05-03T04:53:07.357Z,308.00
2019-05-03T04:54:07.334Z,308.00
2019-05-03T04:55:07.324Z,300.00
2019-05-03T04:56:07.308Z,296.00
2019-05-03T04:57:07.341Z,288.00
2019-05-03T04:58:07.310Z,280.00
2019-05-03T04:59:07.286Z,268.00
2019-05-03T05:00:11.209Z,264.00
2019-05-03T05:01:07.306Z,252.00
2019-05-03T05:02:07.279Z,244.00
2019-05-03T05:03:07.272Z,240.00
2019-05-03T05:04:07.246Z,232.00
2019-05-03T05:05:07.250Z,228.00
2019-05-03T05:06:07.250Z,232.00
2019-05-03T05:07:07.248Z,240.00
2019-05-03T05:08:07.247Z,244.00
2019-05-03T05:09:07.210Z,244.00
2019-05-03T05:10:07.213Z,236.00
2019-05-03T05:11:10.399Z,228.00
2019-05-03T05:12:07.199Z,224.00
2019-05-03T05:13:07.196Z,224.00
2019-05-03T05:14:07.186Z,224.00
2019-05-03T05:15:07.173Z,220.00
2019-05-03T05:16:07.175Z,216.00
2019-05-03T05:17:07.174Z,220.00
2019-05-03T05:18:07.159Z,220.00
2019-05-03T05:19:07.150Z,220.00
2019-05-03T05:20:07.143Z,212.00
2019-05-03T05:21:07.131Z,208.00
2019-05-03T05:22:07.132Z,208.00
2019-05-03T05:23:07.134Z,216.00
2019-05-03T05:24:07.118Z,216.00
2019-05-03T05:25:07.111Z,224.00
2019-05-03T05:26:07.104Z,232.00
2019-05-03T05:27:07.094Z,236.00
2019-05-03T05:28:07.085Z,240.00
2019-05-03T05:29:07.090Z,240.00
2019-05-03T05:30:07.070Z,232.00
2019-05-03T05:31:07.072Z,248.00
2019-05-03T05:32:07.066Z,256.00
2019-05-03T05:33:08.864Z,256.00
2019-05-03T05:34:08.936Z,256.00
2019-05-03T05:35:07.039Z,252.00
2019-05-03T05:36:07.030Z,252.00
2019-05-03T05:37:07.029Z,256.00
2019-05-03T05:38:07.022Z,256.00
2019-05-03T05:39:07.011Z,256.00
2019-05-03T05:40:07.007Z,256.00
2019-05-03T05:41:06.999Z,260.00
2019-05-03T05:42:06.991Z,260.00
2019-05-03T05:43:07.009Z,260.00
2019-05-03T05:44:06.981Z,264.00
2019-05-03T05:45:06.989Z,256.00
2019-05-03T05:46:06.969Z,256.00
2019-05-03T05:47:06.957Z,252.00
2019-05-03T05:48:06.961Z,252.00
2019-05-03T05:49:06.947Z,252.00
2019-05-03T05:50:09.091Z,252.00
2019-05-03T05:51:08.809Z,256.00
2019-05-03T05:52:06.929Z,256.00
2019-05-03T05:53:06.928Z,256.00
2019-05-03T05:54:06.911Z,256.00
2019-05-03T05:55:06.908Z,260.00
2019-05-03T05:56:06.906Z,260.00
2019-05-03T05:57:08.439Z,260.00
2019-05-03T05:58:08.317Z,256.00
2019-05-03T05:59:06.874Z,260.00
2019-05-03T06:00:06.869Z,264.00
2019-05-03T06:01:06.863Z,272.00
2019-05-03T06:02:06.857Z,268.00
2019-05-03T06:03:06.856Z,276.00
2019-05-03T06:04:06.847Z,276.00
2019-05-03T06:05:06.844Z,280.00
2019-05-03T06:06:06.836Z,280.00
2019-05-03T06:07:06.824Z,276.00
2019-05-03T06:08:06.816Z,284.00
2019-05-03T06:09:06.814Z,276.00
2019-05-03T06:10:06.808Z,276.00
2019-05-03T06:11:06.797Z,280.00
2019-05-03T06:12:06.793Z,280.00
2019-05-03T06:13:06.783Z,280.00
2019-05-03T06:14:06.775Z,288.00
2019-05-03T06:15:06.776Z,300.00
2019-05-03T06:16:06.773Z,304.00
2019-05-03T06:17:06.764Z,316.00
2019-05-03T06:18:06.769Z,328.00
2019-05-03T06:19:06.763Z,328.00
2019-05-03T06:20:06.735Z,344.00
2019-05-03T06:21:06.732Z,392.00
2019-05-03T06:22:06.749Z,520.00
2019-05-03T06:23:06.728Z,632.00
2019-05-03T06:24:06.718Z,604.00
2019-05-03T06:25:06.795Z,604.00
2019-05-03T06:26:06.698Z,464.00
2019-05-03T06:27:06.693Z,368.00
2019-05-03T06:28:17.669Z,356.00
2019-05-03T06:29:06.683Z,416.00
2019-05-03T06:30:06.711Z,524.00
2019-05-03T06:31:06.661Z,484.00
2019-05-03T06:32:06.652Z,452.00
2019-05-03T06:33:06.645Z,444.00
2019-05-03T06:34:06.646Z,456.00
2019-05-03T06:35:06.668Z,340.00
2019-05-03T06:36:06.640Z,356.00
2019-05-03T06:37:06.660Z,400.00
2019-05-03T06:38:06.637Z,368.00
2019-05-03T06:39:08.302Z,452.00
2019-05-03T06:40:06.601Z,552.00
2019-05-03T06:41:06.607Z,728.00
2019-05-03T06:42:09.843Z,748.00
2019-05-03T06:43:09.825Z,760.00
2019-05-03T06:44:06.572Z,820.00
2019-05-03T06:45:10.377Z,716.00
2019-05-03T06:46:06.563Z,780.00
2019-05-03T06:47:10.363Z,768.00
2019-05-03T06:48:06.554Z,644.00
2019-05-03T06:49:10.063Z,452.00
2019-05-03T06:50:06.532Z,468.00
2019-05-03T06:51:11.004Z,580.00
2019-05-03T06:52:06.545Z,568.00
2019-05-03T06:53:12.665Z,460.00
2019-05-03T06:54:06.566Z,428.00
2019-05-03T06:55:10.595Z,412.00
2019-05-03T06:56:06.501Z,456.00
2019-05-03T06:57:09.454Z,584.00
2019-05-03T06:58:06.478Z,672.00
2019-05-03T06:59:06.481Z,604.00
2019-05-03T07:00:06.466Z,728.00
2019-05-03T07:01:06.461Z,800.00
2019-05-03T07:02:06.452Z,848.00
2019-05-03T07:03:06.445Z,544.00
2019-05-03T07:04:06.438Z,424.00
2019-05-03T07:05:06.429Z,424.00
2019-05-03T07:06:06.425Z,444.00
2019-05-03T07:07:06.419Z,400.00
2019-05-03T07:08:06.412Z,504.00
2019-05-03T07:09:06.413Z,628.00
2019-05-03T07:10:06.643Z,708.00
2019-05-03T07:11:06.619Z,592.00
2019-05-03T07:12:06.613Z,724.00
2019-05-03T07:13:08.898Z,784.00
2019-05-03T07:14:06.374Z,588.00
2019-05-03T07:15:06.362Z,568.00
2019-05-03T07:16:06.356Z,632.00
2019-05-03T07:17:06.345Z,624.00
2019-05-03T07:18:06.345Z,660.00
2019-05-03T07:19:06.340Z,720.00
2019-05-03T07:20:06.331Z,764.00
2019-05-03T07:21:06.325Z,668.00
2019-05-03T07:22:06.319Z,616.00
2019-05-03T07:23:06.305Z,644.00
2019-05-03T07:24:06.303Z,564.00
2019-05-03T07:25:06.307Z,600.00
2019-05-03T07:26:06.306Z,600.00
2019-05-03T07:27:06.286Z,628.00
2019-05-03T07:28:06.281Z,764.00
2019-05-03T07:29:06.283Z,916.00
2019-05-03T07:30:06.265Z,824.00
2019-05-03T07:31:06.302Z,788.00
2019-05-03T07:32:06.255Z,760.00
2019-05-03T07:33:06.249Z,748.00
2019-05-03T07:34:06.238Z,664.00
2019-05-03T07:35:06.227Z,552.00
2019-05-03T07:36:06.230Z,532.00
2019-05-03T07:37:06.217Z,492.00
2019-05-03T07:38:06.220Z,452.00
2019-05-03T07:39:06.214Z,512.00
2019-05-03T07:40:06.205Z,580.00
2019-05-03T07:41:06.197Z,688.00
2019-05-03T07:42:06.190Z,748.00
2019-05-03T07:43:06.188Z,736.00
2019-05-03T07:44:06.192Z,696.00
2019-05-03T07:45:06.178Z,612.00
2019-05-03T07:46:06.169Z,676.00
2019-05-03T07:47:06.162Z,832.00
2019-05-03T07:48:06.148Z,940.00
2019-05-03T07:49:06.140Z,836.00
2019-05-03T07:50:06.179Z,688.00
2019-05-03T07:51:06.132Z,528.00
2019-05-03T07:52:06.126Z,532.00
2019-05-03T07:53:06.132Z,468.00
2019-05-03T07:54:06.123Z,428.00
2019-05-03T07:55:06.099Z,472.00
2019-05-03T07:56:06.093Z,536.00
2019-05-03T07:57:06.088Z,592.00
2019-05-03T07:58:06.081Z,628.00
2019-05-03T07:59:06.435Z,648.00
2019-05-03T08:00:06.080Z,724.00
2019-05-03T08:01:09.815Z,820.00
2019-05-03T08:02:06.086Z,732.00
2019-05-03T08:03:06.055Z,568.00
2019-05-03T08:04:06.053Z,560.00
2019-05-03T08:05:06.043Z,584.00
2019-05-03T08:06:06.035Z,636.00
2019-05-03T08:07:19.326Z,648.00
2019-05-03T08:08:06.027Z,500.00
2019-05-03T08:09:06.013Z,556.00
2019-05-03T08:10:06.022Z,568.00
2019-05-03T08:11:06.004Z,604.00
2019-05-03T08:12:06.003Z,620.00
2019-05-03T08:13:06.012Z,600.00
2019-05-03T08:14:05.985Z,672.00
2019-05-03T08:15:05.974Z,700.00
2019-05-03T08:16:06.125Z,708.00
2019-05-03T08:17:05.977Z,776.00
2019-05-03T08:18:05.965Z,844.00
2019-05-03T08:19:05.952Z,880.00
2019-05-03T08:20:05.947Z,948.00
2019-05-03T08:21:06.048Z,940.00
2019-05-03T08:22:05.934Z,936.00
2019-05-03T08:23:05.936Z,932.00
2019-05-03T08:24:05.923Z,1000.00
2019-05-03T08:25:05.926Z,1152.00
2019-05-03T08:26:06.212Z,1172.00
2019-05-03T08:27:05.900Z,1076.00
2019-05-03T08:28:05.900Z,924.00
2019-05-03T08:29:15.675Z,768.00
2019-05-03T08:30:05.885Z,684.00
2019-05-03T08:31:05.886Z,700.00
2019-05-03T08:32:05.881Z,836.00
2019-05-03T08:33:05.865Z,868.00
2019-05-03T08:34:05.860Z,996.00
2019-05-03T08:35:05.864Z,992.00
2019-05-03T08:36:05.851Z,860.00
2019-05-03T08:37:05.852Z,764.00
2019-05-03T08:38:05.847Z,768.00
2019-05-03T08:39:05.826Z,772.00
2019-05-03T08:40:05.822Z,648.00
2019-05-03T08:41:05.824Z,532.00
2019-05-03T08:42:05.811Z,608.00
2019-05-03T08:43:05.811Z,656.00
2019-05-03T08:44:05.803Z,596.00
2019-05-03T08:45:08.028Z,592.00
2019-05-03T08:46:05.795Z,632.00
2019-05-03T08:47:05.781Z,572.00
2019-05-03T08:48:05.776Z,604.00
2019-05-03T08:49:05.778Z,708.00
2019-05-03T08:50:05.771Z,848.00
2019-05-03T08:51:05.760Z,948.00
2019-05-03T08:52:05.751Z,816.00
2019-05-03T08:53:05.745Z,744.00
2019-05-03T08:54:05.745Z,792.00
2019-05-03T08:55:05.743Z,712.00
2019-05-03T08:56:05.735Z,600.00
2019-05-03T08:57:06.370Z,580.00
2019-05-03T08:58:05.739Z,552.00
2019-05-03T08:59:05.722Z,524.00
2019-05-03T09:00:05.711Z,544.00
2019-05-03T09:01:05.786Z,676.00
2019-05-03T09:02:13.887Z,820.00
2019-05-03T09:03:05.687Z,1028.00
2019-05-03T09:04:05.682Z,996.00
2019-05-03T09:05:05.671Z,964.00
2019-05-03T09:06:05.664Z,844.00
2019-05-03T09:07:05.668Z,656.00
2019-05-03T09:08:05.899Z,644.00
2019-05-03T09:09:05.653Z,696.00
2019-05-03T09:10:05.653Z,560.00
2019-05-03T09:11:05.634Z,436.00
2019-05-03T09:12:05.631Z,420.00
2019-05-03T09:13:06.489Z,420.00
2019-05-03T09:14:05.621Z,476.00
2019-05-03T09:15:05.615Z,496.00
2019-05-03T09:16:05.665Z,564.00
2019-05-03T09:17:05.614Z,688.00
2019-05-03T09:18:05.620Z,868.00
2019-05-03T09:19:05.808Z,1072.00
2019-05-03T09:20:05.589Z,1220.00
2019-05-03T09:21:05.589Z,1160.00
2019-05-03T09:22:06.127Z,1136.00
2019-05-03T09:23:05.645Z,1112.00
2019-05-03T09:24:05.556Z,1100.00
2019-05-03T09:25:05.559Z,1168.00
2019-05-03T09:26:05.589Z,1092.00
2019-05-03T09:27:05.743Z,972.00
2019-05-03T09:28:05.537Z,892.00
2019-05-03T09:29:05.701Z,816.00
2019-05-03T09:30:05.523Z,896.00
2019-05-03T09:31:05.514Z,1028.00
2019-05-03T09:32:05.534Z,1064.00
2019-05-03T09:33:08.890Z,1000.00
2019-05-03T09:34:08.038Z,968.00
2019-05-03T09:35:05.639Z,972.00
2019-05-03T09:36:05.521Z,936.00
2019-05-03T09:37:05.483Z,824.00
2019-05-03T09:38:05.805Z,664.00
2019-05-03T09:39:05.472Z,588.00
2019-05-03T09:40:05.468Z,556.00
2019-05-03T09:41:05.469Z,536.00
2019-05-03T09:42:05.460Z,552.00
2019-05-03T09:43:05.449Z,592.00
2019-05-03T09:44:05.437Z,604.00
2019-05-03T09:45:05.436Z,596.00
2019-05-03T09:46:05.442Z,656.00
2019-05-03T09:47:05.797Z,720.00
2019-05-03T09:48:05.928Z,784.00
2019-05-03T09:49:13.432Z,892.00
2019-05-03T09:50:05.408Z,1004.00
2019-05-03T09:51:05.398Z,1120.00
2019-05-03T09:52:08.094Z,1228.00
2019-05-03T09:53:05.707Z,1252.00
2019-05-03T09:54:05.419Z,1208.00
2019-05-03T09:55:05.376Z,1188.00
2019-05-03T09:56:05.371Z,1108.00
2019-05-03T09:57:05.916Z,896.00
2019-05-03T09:58:05.680Z,752.00
2019-05-03T09:59:05.476Z,632.00
2019-05-03T10:00:05.354Z,608.00
2019-05-03T10:01:08.306Z,648.00
2019-05-03T10:02:05.345Z,696.00
2019-05-03T10:03:05.703Z,668.00
2019-05-03T10:04:05.547Z,716.00
2019-05-03T10:05:05.320Z,848.00
2019-05-03T10:06:05.320Z,832.00
2019-05-03T10:07:05.314Z,876.00
2019-05-03T10:08:05.439Z,984.00
2019-05-03T10:09:05.411Z,1056.00
2019-05-03T10:10:05.728Z,1100.00
2019-05-03T10:11:05.719Z,1088.00
2019-05-03T10:12:05.605Z,1144.00
2019-05-03T10:13:14.842Z,1212.00
2019-05-03T10:14:05.266Z,1248.00
2019-05-03T10:15:06.538Z,1280.00
2019-05-03T10:16:05.993Z,1248.00
2019-05-03T10:17:05.539Z,1256.00
2019-05-03T10:18:10.563Z,1292.00
2019-05-03T10:19:05.234Z,1356.00
2019-05-03T10:20:05.240Z,1464.00
2019-05-03T10:21:05.552Z,1444.00
2019-05-03T10:22:05.852Z,1356.00
2019-05-03T10:23:06.389Z,1240.00
2019-05-03T10:24:06.632Z,1084.00
2019-05-03T10:25:05.202Z,1020.00
2019-05-03T10:26:05.297Z,992.00
2019-05-03T10:27:05.687Z,1004.00
2019-05-03T10:28:05.758Z,1048.00
2019-05-03T10:29:05.500Z,1112.00
2019-05-03T10:30:12.542Z,1172.00
2019-05-03T10:31:07.691Z,1188.00
2019-05-03T10:32:05.161Z,1212.00
2019-05-03T10:33:05.989Z,1276.00
2019-05-03T10:34:05.784Z,1360.00
2019-05-03T10:35:05.685Z,1416.00
2019-05-03T10:36:05.586Z,1416.00
2019-05-03T10:37:05.293Z,1408.00
2019-05-03T10:38:05.833Z,1364.00
2019-05-03T10:39:05.122Z,1328.00
2019-05-03T10:40:07.996Z,1288.00
2019-05-03T10:41:05.814Z,1216.00
2019-05-03T10:42:05.121Z,1084.00
2019-05-03T10:43:05.140Z,1008.00
2019-05-03T10:44:06.054Z,952.00
2019-05-03T10:45:05.169Z,904.00
2019-05-03T10:46:05.358Z,876.00
2019-05-03T10:47:05.619Z,772.00
2019-05-03T10:48:05.129Z,696.00
2019-05-03T10:49:05.741Z,696.00
2019-05-03T10:50:05.059Z,708.00
2019-05-03T10:51:05.090Z,736.00
2019-05-03T10:52:05.634Z,784.00
2019-05-03T10:53:05.320Z,788.00
2019-05-03T10:54:05.298Z,852.00
2019-05-03T10:55:05.430Z,1004.00
2019-05-03T10:56:05.168Z,1148.00
2019-05-03T10:57:05.333Z,1180.00
2019-05-03T10:58:05.360Z,1244.00
2019-05-03T10:59:06.154Z,1304.00
2019-05-03T11:00:05.135Z,1328.00
2019-05-03T11:01:05.209Z,1280.00
2019-05-03T11:02:04.983Z,1328.00
2019-05-03T11:03:05.399Z,1420.00
2019-05-03T11:04:05.417Z,1388.00
2019-05-03T11:05:05.264Z,1208.00
2019-05-03T11:06:05.479Z,952.00
2019-05-03T11:07:05.466Z,708.00
2019-05-03T11:08:05.089Z,544.00
2019-05-03T11:09:05.665Z,464.00
2019-05-03T11:10:05.306Z,412.00
2019-05-03T11:11:05.946Z,436.00
2019-05-03T11:12:05.344Z,516.00
2019-05-03T11:13:05.883Z,624.00
2019-05-03T11:14:05.642Z,740.00
2019-05-03T11:15:04.945Z,868.00
2019-05-03T11:16:05.612Z,952.00
2019-05-03T11:17:05.655Z,956.00
2019-05-03T11:18:05.592Z,944.00
2019-05-03T11:19:05.423Z,944.00
2019-05-03T11:20:05.278Z,928.00
2019-05-03T11:21:05.199Z,936.00
2019-05-03T11:22:05.443Z,952.00
2019-05-03T11:23:05.928Z,912.00
2019-05-03T11:24:04.863Z,916.00
2019-05-03T11:25:05.182Z,912.00
2019-05-03T11:26:04.855Z,904.00
2019-05-03T11:27:04.843Z,944.00
2019-05-03T11:28:04.972Z,1016.00
2019-05-03T11:29:05.303Z,1096.00
2019-05-03T11:30:05.011Z,1224.00
2019-05-03T11:31:05.051Z,1248.00
2019-05-03T11:32:09.312Z,1316.00
2019-05-03T11:33:04.821Z,1368.00
2019-05-03T11:34:04.805Z,1328.00
2019-05-03T11:35:04.806Z,1204.00
2019-05-03T11:36:04.799Z,1028.00
2019-05-03T11:37:05.032Z,916.00
2019-05-03T11:38:05.472Z,884.00
2019-05-03T11:39:04.975Z,1008.00
2019-05-03T11:40:05.148Z,1068.00
2019-05-03T11:41:05.006Z,1024.00
2019-05-03T11:42:04.797Z,1048.00
2019-05-03T11:43:04.788Z,1128.00
2019-05-03T11:44:04.749Z,1212.00
2019-05-03T11:45:04.743Z,1336.00
2019-05-03T11:46:04.732Z,1404.00
2019-05-03T11:47:05.799Z,1372.00
2019-05-03T11:48:04.726Z,1288.00
2019-05-03T11:49:05.627Z,1180.00
2019-05-03T11:50:04.754Z,1144.00
2019-05-03T11:51:04.710Z,1176.00
2019-05-03T11:52:06.484Z,1184.00
2019-05-03T11:53:05.167Z,1136.00
2019-05-03T11:54:05.876Z,1152.00
2019-05-03T11:55:10.977Z,1216.00
2019-05-03T11:56:05.543Z,1292.00
2019-05-03T11:57:05.103Z,1300.00
2019-05-03T11:58:05.659Z,1248.00
2019-05-03T11:59:05.306Z,1148.00
2019-05-03T12:00:05.366Z,1108.00
2019-05-03T12:01:13.106Z,1044.00
2019-05-03T12:02:04.841Z,1072.00
2019-05-03T12:03:05.045Z,1108.00
2019-05-03T12:04:05.038Z,1172.00
2019-05-03T12:05:05.038Z,1260.00
2019-05-03T12:06:05.016Z,1280.00
2019-05-03T12:07:05.969Z,1344.00
2019-05-03T12:08:05.399Z,1388.00
2019-05-03T12:09:05.560Z,1376.00
2019-05-03T12:10:13.587Z,1396.00
2019-05-03T12:11:05.735Z,1372.00
2019-05-03T12:12:04.964Z,1300.00
2019-05-03T12:13:05.070Z,1292.00
2019-05-03T12:14:06.884Z,1344.00
2019-05-03T12:15:04.577Z,1312.00
2019-05-03T12:16:14.630Z,1200.00
2019-05-03T12:17:18.721Z,1224.00
2019-05-03T12:18:06.002Z,1176.00
2019-05-03T12:19:16.436Z,1160.00
2019-05-03T12:20:07.714Z,1188.00
2019-05-03T12:21:07.908Z,1060.00
2019-05-03T12:22:06.127Z,1036.00
2019-05-03T12:23:06.092Z,1052.00
2019-05-03T12:24:06.248Z,1056.00
2019-05-03T12:25:10.151Z,1112.00
2019-05-03T12:26:09.924Z,1092.00
2019-05-03T12:27:04.794Z,1148.00
2019-05-03T12:28:05.835Z,1204.00
2019-05-03T12:29:04.676Z,1272.00
2019-05-03T12:30:05.015Z,1280.00
2019-05-03T12:31:04.984Z,1328.00
2019-05-03T12:32:05.230Z,1396.00
2019-05-03T12:33:05.933Z,1388.00
2019-05-03T12:34:06.030Z,1336.00
2019-05-03T12:35:06.106Z,1216.00
2019-05-03T12:36:05.339Z,1228.00
2019-05-03T12:37:05.186Z,1348.00
2019-05-03T12:38:05.457Z,1448.00